Time;durP1;ratioP1;P1;durP2;ratioP2;P2;SDS_P1;SDS_P2;PMS_P1;PMS_P2;Temp;Humidity;BMP_temperature;BMP_pressure;BME280_temperature;BME280_humidity;BME280_pressure;Samples;Min_cycle;Max_cycle;Signal;HPM_P1;HPM_P2
2021/07/11 00:00:16;;;;;;;8.83;8.03;;;;;;;14.76;100.00;97864.72;4983252;28;20201;-69
2021/07/11 00:02:46;;;;;;;9.77;9.07;;;;;;;14.76;100.00;97885.22;4983204;28;20568;-70
2021/07/11 00:05:16;;;;;;;8.80;8.07;;;;;;;14.75;100.00;97867.56;4982701;28;20237;-68
2021/07/11 00:07:44;;;;;;;10.23;8.93;;;;;;;14.81;100.00;97876.66;4987122;28;20277;-69
2021/07/11 00:10:13;;;;;;;10.03;8.73;;;;;;;14.84;100.00;97877.09;4983967;28;20357;-67
2021/07/11 00:12:42;;;;;;;8.67;8.07;;;;;;;14.82;100.00;97875.63;4980043;28;20236;-69
2021/07/11 00:15:13;;;;;;;8.67;8.07;;;;;;;14.88;100.00;97883.69;4987834;28;20205;-68
2021/07/11 00:17:42;;;;;;;8.53;7.93;;;;;;;14.99;100.00;97878.81;4983654;28;20205;-68
2021/07/11 00:20:14;;;;;;;8.43;7.83;;;;;;;15.06;100.00;97877.03;4984434;28;20209;-68
2021/07/11 00:22:42;;;;;;;8.20;7.50;;;;;;;15.20;100.00;97885.94;4983635;28;20313;-71
2021/07/11 00:25:13;;;;;;;8.73;8.10;;;;;;;15.28;100.00;97876.94;4982611;28;20206;-68
2021/07/11 00:27:41;;;;;;;7.23;6.73;;;;;;;15.40;100.00;97871.88;4983737;28;20560;-69
2021/07/11 00:30:10;;;;;;;7.63;7.13;;;;;;;15.43;100.00;97882.97;4981311;28;20689;-70
2021/07/11 00:32:39;;;;;;;7.73;7.00;;;;;;;15.51;100.00;97882.00;4980714;28;20717;-68
2021/07/11 00:35:08;;;;;;;7.43;6.83;;;;;;;15.67;100.00;97880.81;4980440;28;20216;-70
2021/07/11 00:37:38;;;;;;;7.67;7.00;;;;;;;15.69;100.00;97885.97;4983511;28;20202;-68
2021/07/11 00:40:07;;;;;;;7.00;6.47;;;;;;;15.85;100.00;97874.94;4982530;28;20682;-70
2021/07/11 00:42:35;;;;;;;6.37;5.90;;;;;;;15.91;100.00;97881.34;4987202;28;20244;-69
2021/07/11 00:45:04;;;;;;;5.60;5.30;;;;;;;15.88;100.00;97871.88;4982485;28;20202;-71
2021/07/11 00:47:32;;;;;;;6.13;5.70;;;;;;;15.85;100.00;97879.44;4984229;28;20236;-69
2021/07/11 00:50:00;;;;;;;6.00;5.50;;;;;;;15.83;100.00;97868.13;4985246;28;20205;-70
2021/07/11 00:52:28;;;;;;;7.00;6.40;;;;;;;15.91;100.00;97873.34;4979715;28;20232;-70
2021/07/11 00:54:57;;;;;;;6.83;6.13;;;;;;;15.95;100.00;97860.38;4979507;28;20575;-69
2021/07/11 00:57:25;;;;;;;6.77;6.27;;;;;;;15.89;100.00;97865.50;4983545;28;20216;-69
2021/07/11 00:59:53;;;;;;;6.33;5.83;;;;;;;15.85;100.00;97863.41;4983615;28;20206;-70
2021/07/11 01:02:32;;;;;;;6.40;5.77;;;;;;;15.92;100.00;97869.66;4978576;28;20229;-69
2021/07/11 01:05:06;;;;;;;5.90;5.40;;;;;;;15.93;100.00;97867.78;4978883;28;20570;-69
2021/07/11 01:07:37;;;;;;;5.50;5.20;;;;;;;16.00;100.00;97873.97;4981710;28;20221;-70
2021/07/11 01:10:10;;;;;;;5.27;4.97;;;;;;;16.12;100.00;97875.03;4981702;28;20221;-69
2021/07/11 01:12:44;;;;;;;5.77;5.30;;;;;;;16.09;100.00;97874.59;4985555;28;20233;-69
2021/07/11 01:15:12;;;;;;;4.57;4.27;;;;;;;16.27;100.00;97879.38;4982492;28;20653;-69
2021/07/11 01:17:41;;;;;;;4.37;3.97;;;;;;;16.19;100.00;97883.06;4980333;28;20206;-70
2021/07/11 01:20:29;;;;;;;4.67;4.30;;;;;;;16.17;100.00;97880.59;4981855;28;20208;-68
2021/07/11 01:22:58;;;;;;;4.90;4.47;;;;;;;16.21;100.00;97878.31;4981879;28;20222;-69
2021/07/11 01:25:34;;;;;;;4.47;4.17;;;;;;;16.26;100.00;97869.69;4983187;28;20206;-67
2021/07/11 01:28:03;;;;;;;5.13;4.83;;;;;;;16.17;100.00;97875.25;4982935;28;20224;-69
2021/07/11 01:30:32;;;;;;;4.30;3.93;;;;;;;16.31;100.00;97880.59;4982347;28;20206;-68
2021/07/11 01:33:02;;;;;;;3.60;3.40;;;;;;;16.26;100.00;97885.75;4981197;28;20234;-69
2021/07/11 01:35:31;;;;;;;4.03;3.80;;;;;;;16.32;100.00;97885.75;4973406;28;20209;-69
2021/07/11 01:37:59;;;;;;;4.20;3.73;;;;;;;16.37;100.00;97887.81;4978867;28;20619;-69
2021/07/11 01:40:28;;;;;;;3.67;3.40;;;;;;;16.39;100.00;97895.63;4973752;28;20218;-70
2021/07/11 01:42:58;;;;;;;3.50;3.30;;;;;;;16.42;100.00;97897.91;4978545;28;20241;-69
2021/07/11 01:45:26;;;;;;;3.40;3.30;;;;;;;16.50;100.00;97903.03;4982427;28;20202;-69
2021/07/11 01:47:54;;;;;;;2.97;2.87;;;;;;;16.47;100.00;97903.47;4977939;28;20237;-71
2021/07/11 01:50:23;;;;;;;3.30;3.20;;;;;;;16.38;100.00;97912.72;4986357;28;20552;-70
2021/07/11 01:52:52;;;;;;;3.13;2.97;;;;;;;16.31;100.00;97921.56;4981741;28;20243;-70
2021/07/11 01:55:21;;;;;;;3.23;3.13;;;;;;;16.35;100.00;97921.94;4985531;28;20256;-71
2021/07/11 01:57:49;;;;;;;2.97;2.87;;;;;;;16.32;100.00;97928.53;4978382;28;20245;-68
2021/07/11 02:00:19;;;;;;;2.80;2.70;;;;;;;16.47;100.00;97933.69;4985734;28;20363;-69
2021/07/11 02:02:48;;;;;;;2.60;2.50;;;;;;;16.37;100.00;97921.75;4978684;28;20222;-71
2021/07/11 02:05:17;;;;;;;2.97;2.77;;;;;;;16.41;100.00;97925.69;4981791;28;20213;-69
2021/07/11 02:07:45;;;;;;;3.30;2.90;;;;;;;16.35;100.00;97925.47;4976891;28;20642;-68
2021/07/11 02:10:15;;;;;;;3.17;2.97;;;;;;;16.41;100.00;97933.69;4984079;28;20563;-68
2021/07/11 02:12:47;;;;;;;2.90;2.73;;;;;;;16.39;100.00;97933.06;4985348;28;20237;-70
2021/07/11 02:15:15;;;;;;;2.53;2.43;;;;;;;16.42;100.00;97935.34;4984190;28;20209;-68
2021/07/11 02:17:47;;;;;;;2.70;2.50;;;;;;;16.47;100.00;97932.88;4983028;28;20206;-70
2021/07/11 02:20:15;;;;;;;4.87;3.00;;;;;;;16.42;100.00;97936.16;4986354;28;20197;-69
2021/07/11 02:22:44;;;;;;;2.80;2.70;;;;;;;16.26;100.00;97939.22;4984329;28;20229;-69
2021/07/11 02:25:16;;;;;;;2.60;2.50;;;;;;;16.29;100.00;97930.78;4981926;28;20566;-68
2021/07/11 02:27:46;;;;;;;2.80;2.70;;;;;;;16.25;100.00;97938.38;4979096;28;20236;-67
2021/07/11 02:30:16;;;;;;;2.60;2.50;;;;;;;16.15;100.00;97936.13;4980345;28;20205;-69
2021/07/11 02:32:48;;;;;;;2.30;2.00;;;;;;;15.98;100.00;97935.66;4981475;28;20225;-68
2021/07/11 02:35:17;;;;;;;2.67;2.43;;;;;;;15.98;100.00;97937.47;4983185;28;20202;-70
2021/07/11 02:37:48;;;;;;;2.73;2.63;;;;;;;15.91;100.00;97934.81;4979082;28;20209;-69
2021/07/11 02:40:18;;;;;;;3.20;2.90;;;;;;;15.94;100.00;97926.38;4982151;28;20210;-69
2021/07/11 02:42:47;;;;;;;2.80;2.60;;;;;;;15.93;100.00;97932.75;4982860;28;20245;-69
2021/07/11 02:45:18;;;;;;;2.70;2.60;;;;;;;15.72;100.00;97933.63;4985319;28;20237;-69
2021/07/11 02:47:49;;;;;;;2.77;2.57;;;;;;;15.66;100.00;97932.59;4990989;28;20228;-69
2021/07/11 02:50:18;;;;;;;2.87;2.77;;;;;;;15.66;100.00;97942.44;4981877;28;20201;-68
2021/07/11 02:52:46;;;;;;;2.80;2.70;;;;;;;15.70;100.00;97939.19;4982822;28;20226;-68
2021/07/11 02:55:16;;;;;;;3.33;3.13;;;;;;;15.61;100.00;97935.06;4980765;28;20214;-69
2021/07/11 02:57:46;;;;;;;3.03;2.93;;;;;;;15.56;100.00;97948.19;4981862;28;20214;-69
2021/07/11 03:00:15;;;;;;;2.90;2.80;;;;;;;15.49;100.00;97948.94;4978253;28;20194;-68
2021/07/11 03:02:44;;;;;;;2.53;2.43;;;;;;;15.49;100.00;97956.16;4982712;28;20583;-69
2021/07/11 03:05:19;;;;;;;3.50;3.20;;;;;;;15.47;100.00;97953.66;4980014;28;20551;-68
2021/07/11 03:07:47;;;;;;;3.80;3.50;;;;;;;15.39;100.00;97955.69;4981901;28;20201;-67
2021/07/11 03:10:16;;;;;;;3.83;3.53;;;;;;;15.40;100.00;97957.31;4984817;28;20265;-69
2021/07/11 03:12:45;;;;;;;3.73;3.43;;;;;;;15.43;100.00;97959.59;4988444;28;20233;-69
2021/07/11 03:15:14;;;;;;;3.73;3.43;;;;;;;15.44;100.00;97958.59;4983029;28;20214;-69
2021/07/11 03:17:43;;;;;;;4.10;3.27;;;;;;;15.32;100.00;97951.09;4983583;28;20229;-68
2021/07/11 03:20:13;;;;;;;4.00;3.80;;;;;;;15.32;100.00;97959.09;4986288;28;20593;-68
2021/07/11 03:22:42;;;;;;;3.83;3.33;;;;;;;15.28;100.00;97962.38;4979439;28;20610;-69
2021/07/11 03:25:13;;;;;;;3.70;3.50;;;;;;;15.28;100.00;97959.72;4984619;28;20205;-68
2021/07/11 03:27:41;;;;;;;4.13;3.83;;;;;;;15.24;100.00;97964.59;4978191;28;20209;-68
2021/07/11 03:30:12;;;;;;;3.57;3.30;;;;;;;15.17;100.00;97971.75;4980552;28;20688;-69
2021/07/11 03:32:42;;;;;;;3.97;3.70;;;;;;;15.18;100.00;97971.56;4985343;28;20233;-69
2021/07/11 03:35:14;;;;;;;4.20;3.90;;;;;;;15.16;100.00;97975.44;4975530;28;20222;-69
2021/07/11 03:37:43;;;;;;;4.57;3.87;;;;;;;15.15;100.00;97987.13;4981293;28;20520;-69
2021/07/11 03:40:16;;;;;;;3.90;3.60;;;;;;;15.15;100.00;97998.66;4976351;28;20297;-69
2021/07/11 03:42:45;;;;;;;3.90;3.70;;;;;;;15.23;100.00;97988.84;4981825;28;20233;-69
2021/07/11 03:45:15;;;;;;;3.87;3.67;;;;;;;15.13;100.00;97997.16;4982759;28;20209;-69
2021/07/11 03:47:45;;;;;;;4.23;3.83;;;;;;;15.14;100.00;97999.63;4978875;28;20663;-68
2021/07/11 03:50:15;;;;;;;4.27;3.90;;;;;;;15.08;100.00;97995.06;4984071;28;20234;-69
2021/07/11 03:52:47;;;;;;;9.10;4.57;;;;;;;15.07;100.00;97997.94;4984244;28;20237;-69
2021/07/11 03:55:16;;;;;;;4.13;3.80;;;;;;;14.99;100.00;98004.25;4984454;28;20206;-70
2021/07/11 03:57:45;;;;;;;6.97;3.50;;;;;;;15.01;100.00;98010.22;4982499;28;20210;-70
2021/07/11 04:00:16;;;;;;;4.07;3.77;;;;;;;15.04;100.00;98004.47;4981158;28;20201;-68
2021/07/11 04:02:46;;;;;;;3.97;3.53;;;;;;;15.05;100.00;98009.66;4983791;28;20249;-69
2021/07/11 04:05:16;;;;;;;4.30;3.90;;;;;;;14.99;100.00;98018.41;4978592;28;20212;-71
2021/07/11 04:07:46;;;;;;;3.97;3.77;;;;;;;14.93;100.00;98015.69;4981855;28;20209;-69
2021/07/11 04:10:14;;;;;;;4.17;3.87;;;;;;;14.93;100.00;98021.84;4980367;28;20225;-70
2021/07/11 04:12:42;;;;;;;4.03;3.83;;;;;;;14.95;100.00;98019.00;4977494;28;20236;-70
2021/07/11 04:15:11;;;;;;;3.73;3.53;;;;;;;15.03;100.00;98016.19;4981451;28;20209;-68
2021/07/11 04:17:39;;;;;;;4.20;3.90;;;;;;;14.97;100.00;98031.13;4988038;28;20213;-70
2021/07/11 04:20:08;;;;;;;4.20;4.00;;;;;;;15.03;100.00;98019.69;4976483;28;20198;-72
2021/07/11 04:22:38;;;;;;;4.10;3.73;;;;;;;14.99;100.00;98018.41;4977684;28;20221;-72
2021/07/11 04:25:08;;;;;;;3.80;3.50;;;;;;;15.08;100.00;98027.09;4983425;28;20212;-72
2021/07/11 04:27:36;;;;;;;3.83;3.53;;;;;;;15.11;100.00;98023.22;4980661;28;20209;-72
2021/07/11 04:30:05;;;;;;;4.07;3.67;;;;;;;15.03;100.00;98019.69;4976395;28;20229;-71
2021/07/11 04:32:35;;;;;;;4.00;3.70;;;;;;;15.10;100.00;98019.72;4986359;28;20237;-72
2021/07/11 04:35:03;;;;;;;4.20;3.90;;;;;;;15.19;100.00;98021.25;4981855;28;20718;-72
2021/07/11 04:37:31;;;;;;;3.77;3.57;;;;;;;15.15;100.00;98021.81;4982613;28;20488;-72
2021/07/11 04:40:01;;;;;;;4.27;3.87;;;;;;;15.17;100.00;98020.63;4976479;28;20582;-71
2021/07/11 04:42:29;;;;;;;3.63;3.43;;;;;;;15.15;100.00;98022.66;4977336;28;20324;-71
2021/07/11 04:45:01;;;;;;;3.50;3.30;;;;;;;15.20;100.00;98022.06;4978210;28;20213;-70
2021/07/11 04:47:29;;;;;;;3.53;3.33;;;;;;;15.21;100.00;98033.59;4983444;28;20216;-71
2021/07/11 04:49:57;;;;;;;3.27;3.10;;;;;;;15.23;100.00;98031.56;4982536;28;20236;-71
2021/07/11 04:52:25;;;;;;;4.30;3.70;;;;;;;15.19;100.00;98036.44;4982917;28;20225;-72
2021/07/11 04:54:53;;;;;;;4.20;3.90;;;;;;;15.23;100.00;98035.03;4980939;28;20217;-72
2021/07/11 04:57:22;;;;;;;4.07;3.53;;;;;;;15.28;100.00;98031.78;4974228;28;20217;-70
2021/07/11 04:59:50;;;;;;;3.33;3.13;;;;;;;15.26;100.00;98039.97;4980075;28;20208;-70
2021/07/11 05:02:18;;;;;;;3.80;3.37;;;;;;;15.26;100.00;98034.63;4982958;28;20570;-72
2021/07/11 05:04:46;;;;;;;3.30;3.10;;;;;;;15.19;100.00;98039.94;4980767;28;20220;-71
2021/07/11 05:07:14;;;;;;;3.53;3.33;;;;;;;15.19;100.00;98039.94;4983874;28;20213;-69
2021/07/11 05:09:42;;;;;;;3.63;2.90;;;;;;;15.17;100.00;98038.47;4980887;28;20229;-71
2021/07/11 05:12:10;;;;;;;3.50;3.30;;;;;;;15.18;100.00;98040.13;4976980;28;20225;-70
2021/07/11 05:14:40;;;;;;;3.10;2.90;;;;;;;15.28;100.00;98037.94;4973647;28;20583;-70
2021/07/11 05:17:08;;;;;;;2.63;2.53;;;;;;;15.24;100.00;98039.34;4978883;28;20210;-69
2021/07/11 05:19:36;;;;;;;3.20;3.10;;;;;;;15.16;100.00;98043.00;4978871;28;20209;-69
2021/07/11 05:22:05;;;;;;;3.17;2.97;;;;;;;15.15;100.00;98041.34;4980956;28;20232;-69
2021/07/11 05:24:33;;;;;;;3.17;2.67;;;;;;;15.18;100.00;98042.78;4984145;28;20201;-71
2021/07/11 05:27:00;;;;;;;3.20;3.00;;;;;;;15.22;100.00;98046.72;4982762;28;20294;-69
2021/07/11 05:29:28;;;;;;;4.57;3.27;;;;;;;15.27;100.00;98048.81;4985592;28;20316;-69
2021/07/11 05:31:58;;;;;;;3.20;2.97;;;;;;;15.24;100.00;98052.69;4985807;28;20747;-70
2021/07/11 05:34:26;;;;;;;3.43;3.17;;;;;;;15.19;100.00;98039.94;4986711;28;20215;-68
2021/07/11 05:36:54;;;;;;;2.83;2.63;;;;;;;15.22;100.00;98049.41;4987886;28;20212;-70
2021/07/11 05:39:22;;;;;;;3.13;2.93;;;;;;;15.24;100.00;98047.34;4987667;28;20220;-68
2021/07/11 05:41:50;;;;;;;3.00;2.80;;;;;;;15.37;100.00;98051.16;4985859;28;20209;-68
2021/07/11 05:44:18;;;;;;;2.50;2.40;;;;;;;15.31;100.00;98050.91;4988428;28;20202;-70
2021/07/11 05:46:47;;;;;;;2.10;1.90;;;;;;;15.40;100.00;98058.78;4985006;28;20546;-68
2021/07/11 05:49:17;;;;;;;2.00;1.90;;;;;;;15.49;100.00;98049.63;4988155;28;20197;-68
2021/07/11 05:51:45;;;;;;;2.90;2.10;;;;;;;15.47;100.00;98048.97;4988291;28;20206;-69
2021/07/11 05:54:13;;;;;;;1.87;1.77;;;;;;;15.58;100.00;98043.09;4987737;28;20212;-70
2021/07/11 05:56:41;;;;;;;2.67;1.93;;;;;;;15.78;100.00;98045.88;4987493;28;20206;-70
2021/07/11 05:59:09;;;;;;;1.80;1.70;;;;;;;15.77;100.00;98046.91;4988277;28;20210;-70
2021/07/11 06:01:37;;;;;;;1.93;1.77;;;;;;;15.75;100.00;98048.97;4983482;28;20586;-69
2021/07/11 06:04:05;;;;;;;1.93;1.83;;;;;;;15.66;100.00;98054.66;4985549;28;20680;-70
2021/07/11 06:06:34;;;;;;;2.53;1.80;;;;;;;15.90;100.00;98048.88;4982248;28;20210;-71
2021/07/11 06:09:02;;;;;;;2.27;1.80;;;;;;;15.92;100.00;98048.69;4989306;28;20217;-69
2021/07/11 06:11:30;;;;;;;1.73;1.60;;;;;;;15.91;100.00;98055.06;4982249;28;20240;-70
2021/07/11 06:13:59;;;;;;;1.70;1.70;;;;;;;16.00;100.00;98051.19;4987031;28;20364;-68
2021/07/11 06:16:26;;;;;;;2.30;2.20;;;;;;;16.02;100.00;98056.31;4983319;28;20202;-69
2021/07/11 06:18:55;;;;;;;1.63;1.60;;;;;;;16.06;100.00;98053.06;4984884;28;20220;-70
2021/07/11 06:21:23;;;;;;;1.97;1.87;;;;;;;16.19;100.00;98057.66;4982902;28;20201;-71
2021/07/11 06:23:53;;;;;;;1.93;1.67;;;;;;;16.19;100.00;98056.81;4984852;28;20229;-69
2021/07/11 06:26:21;;;;;;;1.80;1.70;;;;;;;16.21;100.00;98049.44;4986390;28;20206;-69
2021/07/11 06:28:49;;;;;;;2.00;1.63;;;;;;;16.43;100.00;98050.13;4986058;28;20287;-70
2021/07/11 06:31:17;;;;;;;2.10;1.90;;;;;;;16.28;100.00;98049.47;4978867;28;20230;-70
2021/07/11 06:33:45;;;;;;;3.07;1.90;;;;;;;16.23;100.00;98054.59;4984689;28;20226;-71
2021/07/11 06:36:13;;;;;;;2.03;1.90;;;;;;;16.18;100.00;98049.81;4986313;28;20217;-70
2021/07/11 06:38:41;;;;;;;2.07;1.73;;;;;;;16.13;100.00;98058.47;4987802;28;21587;-70
2021/07/11 06:41:11;;;;;;;2.00;1.90;;;;;;;16.17;100.00;98056.19;4985638;28;20721;-70
2021/07/11 06:43:39;;;;;;;1.60;1.50;;;;;;;16.12;100.00;98072.00;4983263;28;20238;-69
2021/07/11 06:46:07;;;;;;;1.70;1.60;;;;;;;15.86;100.00;98073.47;4987705;28;20214;-71
2021/07/11 06:48:35;;;;;;;2.00;1.90;;;;;;;15.86;100.00;98071.63;4987273;28;20198;-70
2021/07/11 06:51:03;;;;;;;1.73;1.63;;;;;;;15.74;100.00;98075.88;4986658;28;20237;-69
2021/07/11 06:53:31;;;;;;;2.20;2.10;;;;;;;15.77;100.00;98064.81;4986916;28;20229;-74
2021/07/11 06:55:59;;;;;;;2.23;1.73;;;;;;;15.65;100.00;98067.19;4982302;28;20221;-71
2021/07/11 06:58:28;;;;;;;2.30;2.20;;;;;;;15.64;100.00;98057.53;4982156;28;20206;-72
2021/07/11 07:00:56;;;;;;;1.97;1.87;;;;;;;15.64;100.00;98068.22;4978159;28;20206;-70
2021/07/11 07:03:24;;;;;;;2.13;2.03;;;;;;;15.85;100.00;98053.13;4979602;28;20222;-70
2021/07/11 07:05:53;;;;;;;2.07;1.90;;;;;;;15.85;100.00;98048.63;4986748;28;20209;-72
2021/07/11 07:08:24;;;;;;;2.50;2.10;;;;;;;15.92;100.00;98054.03;4983872;28;20293;-73
2021/07/11 07:10:51;;;;;;;2.30;2.20;;;;;;;16.04;100.00;98056.94;4982281;28;20225;-75
2021/07/11 07:13:20;;;;;;;8.07;2.47;;;;;;;15.89;100.00;98065.94;4980539;28;20240;-71
2021/07/11 07:15:49;;;;;;;2.30;2.20;;;;;;;15.75;100.00;98069.53;4984251;28;20220;-73
2021/07/11 07:18:17;;;;;;;2.10;2.00;;;;;;;15.68;100.00;98077.47;4981974;28;20586;-71
2021/07/11 07:20:45;;;;;;;2.10;2.00;;;;;;;15.73;100.00;98087.59;4980714;28;20530;-71
2021/07/11 07:23:13;;;;;;;2.43;2.33;;;;;;;15.70;100.00;98087.97;4981498;28;20228;-70
2021/07/11 07:25:41;;;;;;;2.43;2.33;;;;;;;15.70;100.00;98093.28;4982202;28;20209;-71
2021/07/11 07:28:11;;;;;;;3.03;2.00;;;;;;;15.87;100.00;98091.16;4980051;28;20206;-71
2021/07/11 07:30:39;;;;;;;2.03;1.93;;;;;;;15.94;100.00;98094.75;4982179;28;20232;-72
2021/07/11 07:33:10;;;;;;;2.67;2.40;;;;;;;15.99;100.00;98097.66;4983874;28;20230;-72
2021/07/11 07:35:38;;;;;;;2.90;2.80;;;;;;;16.17;100.00;98097.13;4984931;28;20633;-70
2021/07/11 07:38:07;;;;;;;4.37;2.00;;;;;;;16.24;100.00;98099.81;4983561;28;20220;-71
2021/07/11 07:40:35;;;;;;;2.30;2.20;;;;;;;16.03;100.00;98100.75;4983825;28;20649;-70
2021/07/11 07:43:03;;;;;;;2.07;1.97;;;;;;;15.96;100.00;98100.72;4978907;28;20237;-72
2021/07/11 07:45:32;;;;;;;2.60;2.47;;;;;;;15.91;100.00;98112.00;4978429;28;20225;-72
2021/07/11 07:48:00;;;;;;;2.30;2.20;;;;;;;15.83;100.00;98104.09;4977898;28;20234;-70
2021/07/11 07:50:29;;;;;;;2.20;2.10;;;;;;;15.90;100.00;98104.16;4980899;28;20388;-70
2021/07/11 07:52:58;;;;;;;3.60;3.30;;;;;;;15.80;100.00;98103.66;4982561;28;20225;-71
2021/07/11 07:55:28;;;;;;;2.83;2.70;;;;;;;15.67;100.00;98101.69;4981079;28;20217;-71
2021/07/11 07:57:56;;;;;;;3.40;2.33;;;;;;;15.65;100.00;98095.72;4985703;28;20216;-71
2021/07/11 08:00:24;;;;;;;2.50;2.40;;;;;;;15.63;100.00;98095.94;4983616;28;20214;-70
2021/07/11 08:02:53;;;;;;;2.80;2.60;;;;;;;15.60;100.00;98094.47;4984796;28;20237;-73
2021/07/11 08:05:21;;;;;;;2.93;2.63;;;;;;;15.65;100.00;98101.06;4985086;28;20205;-69
2021/07/11 08:07:50;;;;;;;3.63;2.87;;;;;;;15.66;100.00;98094.72;4984211;28;20216;-70
2021/07/11 08:10:18;;;;;;;2.80;2.60;;;;;;;15.71;100.00;98100.28;4980159;28;20201;-71
2021/07/11 08:12:47;;;;;;;3.07;2.70;;;;;;;15.65;100.00;98098.41;4982012;28;20237;-70
2021/07/11 08:15:17;;;;;;;2.97;2.80;;;;;;;15.74;100.00;98102.59;4981850;28;20213;-68
2021/07/11 08:17:45;;;;;;;2.93;2.83;;;;;;;15.74;100.00;98100.75;4981529;28;20598;-70
2021/07/11 08:20:15;;;;;;;3.07;2.87;;;;;;;15.77;100.00;98113.72;4979775;28;20202;-70
2021/07/11 08:22:43;;;;;;;2.83;2.70;;;;;;;15.69;100.00;98105.84;4981037;28;20405;-71
2021/07/11 08:25:14;;;;;;;3.30;3.10;;;;;;;15.67;100.00;98115.06;4987492;28;20281;-68
2021/07/11 08:27:42;;;;;;;3.43;3.23;;;;;;;15.72;100.00;98112.63;4984766;28;21374;-70
2021/07/11 08:30:12;;;;;;;3.17;3.03;;;;;;;15.74;100.00;98121.31;4984754;28;20729;-69
2021/07/11 08:32:41;;;;;;;3.50;3.30;;;;;;;15.62;100.00;98118.34;4983274;28;20241;-70
2021/07/11 08:35:10;;;;;;;3.47;3.27;;;;;;;15.59;100.00;98116.06;4983493;28;20217;-72
2021/07/11 08:37:38;;;;;;;3.60;3.40;;;;;;;15.65;100.00;98117.94;4978075;28;20689;-71
2021/07/11 08:40:08;;;;;;;3.00;2.90;;;;;;;15.76;100.00;98129.94;4982419;28;20681;-70
2021/07/11 08:42:39;;;;;;;3.30;3.10;;;;;;;15.63;100.00;98133.34;4981228;28;20251;-70
2021/07/11 08:45:09;;;;;;;3.37;3.23;;;;;;;15.62;100.00;98135.16;4982565;28;20210;-70
2021/07/11 08:47:38;;;;;;;3.47;3.27;;;;;;;15.59;100.00;98130.22;4982546;28;20217;-70
2021/07/11 08:50:07;;;;;;;3.80;3.60;;;;;;;15.62;100.00;98129.81;4983503;28;20293;-67
2021/07/11 08:52:36;;;;;;;4.40;4.00;;;;;;;15.66;100.00;98132.09;4977024;28;20256;-68
2021/07/11 08:55:12;;;;;;;3.80;3.60;;;;;;;15.67;100.00;98136.44;4982759;28;20217;-70
2021/07/11 08:57:41;;;;;;;4.23;4.03;;;;;;;15.81;100.00;98138.22;4984384;28;20201;-68
2021/07/11 09:00:10;;;;;;;3.63;3.33;;;;;;;15.83;100.00;98138.84;4983172;28;20209;-69
2021/07/11 09:02:38;;;;;;;4.33;4.00;;;;;;;16.04;100.00;98137.13;4983095;28;20236;-67
2021/07/11 09:05:07;;;;;;;4.00;3.80;;;;;;;16.06;100.00;98132.41;4982471;28;20228;-67
2021/07/11 09:07:35;;;;;;;3.80;3.60;;;;;;;16.17;100.00;98139.06;4974564;28;20205;-68
2021/07/11 09:10:03;;;;;;;3.70;3.50;;;;;;;16.09;100.00;98134.69;4979736;28;20696;-68
2021/07/11 09:12:31;;;;;;;4.20;3.80;;;;;;;16.01;100.00;98143.72;4977957;28;20235;-67
2021/07/11 09:15:01;;;;;;;4.13;3.93;;;;;;;16.25;100.00;98138.09;4979164;28;20220;-69
2021/07/11 09:17:33;;;;;;;3.53;3.43;;;;;;;15.90;100.00;98145.09;4975424;28;20559;-68
2021/07/11 09:20:01;;;;;;;3.80;3.60;;;;;;;15.96;100.00;98156.84;4981860;28;20212;-69
2021/07/11 09:22:29;;;;;;;4.20;3.90;;;;;;;15.97;100.00;98149.63;4974294;28;20226;-68
2021/07/11 09:24:59;;;;;;;3.80;3.60;;;;;;;15.81;100.00;98151.56;4985358;28;20206;-69
2021/07/11 09:27:29;;;;;;;4.03;3.77;;;;;;;15.92;100.00;98147.56;4984038;28;20626;-69
2021/07/11 09:30:01;;;;;;;4.73;4.43;;;;;;;16.08;100.00;98149.09;4977651;28;20220;-69
2021/07/11 09:32:40;;;;;;;4.77;4.53;;;;;;;16.09;100.00;98157.94;4979740;28;20934;-69
2021/07/11 09:35:09;;;;;;;4.87;4.23;;;;;;;16.10;100.00;98159.59;4978241;28;20210;-69
2021/07/11 09:37:38;;;;;;;4.60;4.30;;;;;;;16.15;100.00;98163.34;4981037;28;20666;-68
2021/07/11 09:40:07;;;;;;;4.13;3.93;;;;;;;16.06;100.00;98157.31;4981440;28;20661;-69
2021/07/11 09:42:37;;;;;;;5.50;4.90;;;;;;;15.99;100.00;98156.47;4978169;28;20233;-67
2021/07/11 09:45:12;;;;;;;4.40;4.20;;;;;;;16.03;100.00;98157.72;4981134;28;20621;-67
2021/07/11 09:47:40;;;;;;;4.57;4.27;;;;;;;15.83;100.00;98167.38;4981621;28;20483;-69
2021/07/11 09:50:10;;;;;;;4.30;4.10;;;;;;;15.82;100.00;98171.09;4981591;28;20212;-69
2021/07/11 09:52:41;;;;;;;4.97;4.70;;;;;;;15.70;100.00;98168.94;4981981;28;20230;-70
2021/07/11 09:55:13;;;;;;;5.13;4.83;;;;;;;15.99;100.00;98171.66;4981488;28;20464;-69
2021/07/11 09:57:42;;;;;;;5.17;4.77;;;;;;;15.94;100.00;98168.75;4983110;28;20232;-69
2021/07/11 10:00:21;;;;;;;4.93;4.57;;;;;;;15.77;100.00;98169.00;4983271;28;20777;-69
2021/07/11 10:02:51;;;;;;;5.40;5.10;;;;;;;15.92;100.00;98168.94;4977862;28;20581;-68
2021/07/11 10:05:20;;;;;;;5.90;5.50;;;;;;;16.05;100.00;98169.03;4981122;28;20233;-69
2021/07/11 10:07:48;;;;;;;5.60;5.30;;;;;;;16.23;100.00;98166.88;4984204;28;20217;-69
2021/07/11 10:10:17;;;;;;;5.90;5.37;;;;;;;16.49;100.00;98169.72;4983243;28;20709;-70
2021/07/11 10:12:46;;;;;;;6.10;5.63;;;;;;;16.57;100.00;98178.59;4984700;28;20240;-68
2021/07/11 10:15:18;;;;;;;6.20;5.70;;;;;;;16.66;100.00;98171.22;4983617;28;20221;-69
2021/07/11 10:17:49;;;;;;;6.03;5.67;;;;;;;16.60;100.00;98180.88;4986301;28;20224;-68
2021/07/11 10:20:20;;;;;;;5.07;4.80;;;;;;;16.71;100.00;98177.63;4983293;28;20232;-69
2021/07/11 10:22:50;;;;;;;5.63;5.13;;;;;;;16.70;100.00;98183.19;4984967;28;20221;-69
2021/07/11 10:25:19;;;;;;;5.20;4.90;;;;;;;16.55;100.00;98176.09;4981297;28;20297;-69
2021/07/11 10:27:49;;;;;;;5.23;4.93;;;;;;;16.63;100.00;98178.59;4980016;28;20202;-69
2021/07/11 10:30:17;;;;;;;6.47;5.23;;;;;;;16.66;100.00;98172.03;4983934;28;20202;-68
2021/07/11 10:32:45;;;;;;;5.47;5.17;;;;;;;16.80;100.00;98170.25;4985303;28;20321;-68
2021/07/11 10:35:17;;;;;;;4.93;4.57;;;;;;;16.95;100.00;98175.47;4987106;28;20427;-68
2021/07/11 10:37:51;;;;;;;4.93;4.53;;;;;;;17.13;100.00;98171.41;4983352;28;20717;-69
2021/07/11 10:40:22;;;;;;;5.67;5.27;;;;;;;17.20;100.00;98172.25;4982790;28;20502;-69
2021/07/11 10:42:51;;;;;;;4.63;4.33;;;;;;;17.28;100.00;98171.25;4981036;28;20834;-68
2021/07/11 10:45:21;;;;;;;4.83;4.53;;;;;;;17.06;100.00;98166.88;4980278;28;20653;-69
2021/07/11 10:47:49;;;;;;;5.50;5.07;;;;;;;17.24;100.00;98173.53;4985213;28;20209;-70
2021/07/11 10:50:25;;;;;;;5.00;4.70;;;;;;;17.07;100.00;98173.06;4980568;28;20264;-68
2021/07/11 10:52:54;;;;;;;4.43;4.13;;;;;;;17.18;100.00;98172.47;4984378;28;20233;-68
2021/07/11 10:55:22;;;;;;;5.10;4.80;;;;;;;17.28;100.00;98182.78;4987059;28;20202;-69
2021/07/11 10:57:50;;;;;;;4.67;4.37;;;;;;;17.59;100.00;98184.06;4983824;28;20733;-70
2021/07/11 11:00:21;;;;;;;5.00;4.57;;;;;;;17.11;100.00;98178.81;4984144;28;20666;-69
2021/07/11 11:02:51;;;;;;;4.37;4.07;;;;;;;16.96;100.00;98179.78;4982893;28;20625;-69
2021/07/11 11:05:24;;;;;;;4.33;4.03;;;;;;;16.91;100.00;98184.91;4984127;28;20202;-70
2021/07/11 11:07:54;;;;;;;5.83;5.13;;;;;;;16.68;100.00;98178.03;4983802;28;20578;-68
2021/07/11 11:10:27;;;;;;;4.37;4.07;;;;;;;16.33;100.00;98178.88;4983551;28;20245;-69
2021/07/11 11:13:13;;;;;;;4.60;4.30;;;;;;;16.12;100.00;98182.47;4978262;28;20598;-70
2021/07/11 11:15:43;;;;;;;5.23;4.90;;;;;;;16.17;100.00;98182.69;4981732;28;20221;-68
2021/07/11 11:18:26;;;;;;;5.10;4.80;;;;;;;16.01;100.00;98177.63;4982831;28;20221;-67
2021/07/11 11:20:57;;;;;;;5.47;5.00;;;;;;;15.97;100.00;98174.53;4982973;28;20494;-69
2021/07/11 11:23:31;;;;;;;5.17;4.87;;;;;;;15.99;100.00;98182.34;4984578;28;20222;-69
2021/07/11 11:25:59;;;;;;;6.37;5.87;;;;;;;16.06;100.00;98177.88;4984382;28;20208;-69
2021/07/11 11:28:38;;;;;;;5.93;5.40;;;;;;;16.29;100.00;98177.63;4983148;28;20279;-70
2021/07/11 11:31:15;;;;;;;5.87;5.47;;;;;;;16.37;100.00;98163.25;4982297;28;20281;-69
2021/07/11 11:34:01;;;;;;;6.17;5.77;;;;;;;16.60;100.00;98172.84;4976051;28;20241;-68